Time;durP1;ratioP1;P1;durP2;ratioP2;P2;SDS_P1;SDS_P2;PMS_P1;PMS_P2;Temp;Humidity;BMP_temperature;BMP_pressure;BME280_temperature;BME280_humidity;BME280_pressure;Samples;Min_cycle;Max_cycle;Signal;HPM_P1;HPM_P2
2021/12/29 00:01:38;;;;;;;0.90;0.52;;;17.40;77.20;;;;;;5044352;28;45297;-77
2021/12/29 00:04:06;;;;;;;0.70;0.70;;;17.50;77.50;;;;;;5052225;28;46197;-77
2021/12/29 00:06:33;;;;;;;0.80;0.70;;;17.40;77.00;;;;;;5049665;28;45439;-78
2021/12/29 00:09:03;;;;;;;0.95;0.70;;;17.40;77.40;;;;;;5049700;28;45606;-79
2021/12/29 00:11:31;;;;;;;1.90;0.90;;;17.40;77.50;;;;;;5050382;28;45332;-78
2021/12/29 00:13:59;;;;;;;0.75;0.70;;;17.40;77.20;;;;;;5050319;28;47521;-78
2021/12/29 00:16:29;;;;;;;0.70;0.70;;;17.40;78.00;;;;;;5044773;28;46185;-77
2021/12/29 00:18:56;;;;;;;0.82;0.80;;;17.40;77.70;;;;;;5049727;28;45243;-78
2021/12/29 00:21:23;;;;;;;0.75;0.65;;;17.50;77.40;;;;;;5032457;28;45287;-78
2021/12/29 00:23:51;;;;;;;1.13;0.85;;;17.50;77.60;;;;;;5049801;28;47885;-78
2021/12/29 00:26:21;;;;;;;0.85;0.82;;;17.50;78.00;;;;;;5048625;28;45220;-78
2021/12/29 00:28:51;;;;;;;1.00;0.90;;;17.50;77.60;;;;;;5032167;28;45328;-78
2021/12/29 00:31:20;;;;;;;1.05;0.85;;;17.50;78.20;;;;;;5040326;28;45268;-77
2021/12/29 00:33:47;;;;;;;0.88;0.80;;;17.50;77.80;;;;;;5043868;28;48501;-78
2021/12/29 00:36:14;;;;;;;1.48;0.70;;;17.50;78.00;;;;;;5048070;28;46187;-77
2021/12/29 00:38:42;;;;;;;0.98;0.68;;;17.50;78.00;;;;;;5050439;28;45165;-78
2021/12/29 00:41:09;;;;;;;1.15;0.80;;;17.50;78.50;;;;;;5027870;28;45476;-78
2021/12/29 00:43:42;;;;;;;1.65;0.95;;;17.50;78.50;;;;;;5048428;28;48161;-78
2021/12/29 00:46:12;;;;;;;1.08;0.93;;;17.50;78.50;;;;;;5049028;28;45387;-77
2021/12/29 00:48:43;;;;;;;0.88;0.82;;;17.50;77.70;;;;;;5045154;28;45260;-78
2021/12/29 00:51:11;;;;;;;1.08;0.98;;;17.50;77.70;;;;;;5046105;28;45371;-78
2021/12/29 00:53:40;;;;;;;2.00;1.23;;;17.50;77.40;;;;;;5051501;28;47526;-78
2021/12/29 00:56:07;;;;;;;1.25;1.10;;;17.50;77.80;;;;;;5048630;28;45245;-78
2021/12/29 00:58:35;;;;;;;1.65;1.20;;;17.40;78.30;;;;;;5048169;28;45225;-77
2021/12/29 01:01:06;;;;;;;1.08;0.90;;;17.50;78.70;;;;;;5031213;28;45489;-77
2021/12/29 01:03:38;;;;;;;2.05;1.00;;;17.50;78.50;;;;;;5039961;28;48725;-78
2021/12/29 01:06:13;;;;;;;0.95;0.90;;;17.50;78.70;;;;;;5047965;28;45249;-78
2021/12/29 01:08:43;;;;;;;1.10;1.00;;;17.50;78.10;;;;;;5032599;28;45260;-78
2021/12/29 01:11:11;;;;;;;1.30;0.90;;;17.50;78.60;;;;;;5048956;28;45326;-78
2021/12/29 01:13:45;;;;;;;1.40;0.95;;;17.50;79.10;;;;;;5049154;28;48492;-77
2021/12/29 01:19:01;;;;;;;1.00;0.88;;;17.50;78.00;;;;;;5040246;28;45399;-77
2021/12/29 01:21:31;;;;;;;0.90;0.80;;;17.50;78.50;;;;;;5044785;28;45253;-78
2021/12/29 01:24:00;;;;;;;1.20;0.80;;;17.50;78.60;;;;;;5048411;28;47484;-78
2021/12/29 01:26:28;;;;;;;1.33;1.17;;;17.50;78.70;;;;;;5049083;28;45329;-78
2021/12/29 01:28:55;;;;;;;1.23;0.98;;;17.50;78.40;;;;;;5049057;28;45208;-77
2021/12/29 01:31:24;;;;;;;1.60;1.00;;;17.50;78.70;;;;;;5047427;28;45289;-77
2021/12/29 01:33:52;;;;;;;0.70;0.70;;;17.50;78.60;;;;;;5047286;28;47997;-77
2021/12/29 01:36:19;;;;;;;1.05;0.85;;;17.50;78.70;;;;;;5048343;28;45269;-78
2021/12/29 01:38:47;;;;;;;0.98;0.93;;;17.50;78.30;;;;;;5049163;28;45267;-78
2021/12/29 01:41:14;;;;;;;0.82;0.80;;;17.40;78.50;;;;;;5048801;28;45329;-77
2021/12/29 01:43:41;;;;;;;1.13;0.90;;;17.50;79.10;;;;;;5048114;28;46303;-77
2021/12/29 01:46:08;;;;;;;0.90;0.70;;;17.50;78.40;;;;;;5047749;28;45119;-77
2021/12/29 01:48:37;;;;;;;1.25;0.80;;;17.50;79.30;;;;;;5030660;28;45213;-77
2021/12/29 01:51:06;;;;;;;0.77;0.60;;;17.50;78.90;;;;;;5048100;28;45735;-78
2021/12/29 01:53:35;;;;;;;0.75;0.73;;;17.50;79.40;;;;;;5031065;28;46851;-77
2021/12/29 01:56:03;;;;;;;1.50;0.73;;;17.50;79.00;;;;;;5047120;28;45198;-77
2021/12/29 01:58:30;;;;;;;0.90;0.70;;;17.50;79.40;;;;;;5046312;28;45301;-77
2021/12/29 02:01:00;;;;;;;1.00;0.70;;;17.50;79.40;;;;;;5045281;28;45610;-77
2021/12/29 02:03:28;;;;;;;0.63;0.60;;;17.50;78.30;;;;;;5045913;28;48388;-77
2021/12/29 02:06:00;;;;;;;0.55;0.55;;;17.50;78.50;;;;;;5040371;28;45970;-77
2021/12/29 02:08:31;;;;;;;0.63;0.63;;;17.50;78.70;;;;;;5031415;28;45326;-77
2021/12/29 02:11:00;;;;;;;0.77;0.60;;;17.50;78.50;;;;;;5045381;28;45537;-77
2021/12/29 02:13:28;;;;;;;0.68;0.65;;;17.50;78.40;;;;;;5048105;28;45233;-77
2021/12/29 02:15:56;;;;;;;0.50;0.50;;;17.50;78.80;;;;;;5048415;28;45158;-77
2021/12/29 02:18:27;;;;;;;0.70;0.70;;;17.50;78.20;;;;;;5048409;28;45324;-77
2021/12/29 02:21:05;;;;;;;0.77;0.60;;;17.50;78.40;;;;;;5048186;28;45161;-77
2021/12/29 02:23:46;;;;;;;0.75;0.63;;;17.50;78.30;;;;;;5038344;28;45312;-77
2021/12/29 02:26:17;;;;;;;0.68;0.68;;;17.50;78.00;;;;;;5047743;28;45303;-77
2021/12/29 02:28:44;;;;;;;1.23;0.60;;;17.50;79.00;;;;;;5045920;28;45633;-77
2021/12/29 02:31:11;;;;;;;0.60;0.60;;;17.50;78.40;;;;;;5046468;28;45360;-77
2021/12/29 02:33:38;;;;;;;0.52;0.52;;;17.50;79.00;;;;;;5037049;28;48246;-77
2021/12/29 02:36:07;;;;;;;0.50;0.50;;;17.50;78.70;;;;;;5041752;28;45356;-77
2021/12/29 02:38:43;;;;;;;0.70;0.70;;;17.50;78.90;;;;;;5031335;28;45275;-77
2021/12/29 02:41:10;;;;;;;0.80;0.70;;;17.50;79.10;;;;;;5048775;28;45491;-77
2021/12/29 02:43:39;;;;;;;0.60;0.60;;;17.50;78.60;;;;;;5046130;28;47927;-77
2021/12/29 02:46:11;;;;;;;0.80;0.70;;;17.50;79.10;;;;;;5046388;28;45347;-77
2021/12/29 02:48:43;;;;;;;1.00;0.73;;;17.50;78.80;;;;;;5040025;28;45196;-77
2021/12/29 02:51:15;;;;;;;0.80;0.80;;;17.50;78.20;;;;;;5028997;28;45262;-77
2021/12/29 02:53:44;;;;;;;0.60;0.60;;;17.50;78.10;;;;;;5047584;28;47609;-77
2021/12/29 02:56:14;;;;;;;1.10;0.70;;;17.50;78.60;;;;;;5047307;28;45230;-77
2021/12/29 02:58:42;;;;;;;0.82;0.65;;;17.50;78.80;;;;;;5047051;28;45510;-77
2021/12/29 03:01:12;;;;;;;1.02;0.80;;;17.50;77.70;;;;;;5054261;28;45349;-77
2021/12/29 03:03:39;;;;;;;1.10;0.80;;;17.50;78.40;;;;;;5043275;28;47521;-77
2021/12/29 03:06:07;;;;;;;0.73;0.73;;;17.50;77.90;;;;;;5046747;28;45234;-77
2021/12/29 03:08:36;;;;;;;1.20;0.80;;;17.50;78.10;;;;;;5045240;28;46357;-77
2021/12/29 03:11:04;;;;;;;0.70;0.63;;;17.50;77.80;;;;;;5046987;28;45271;-77
2021/12/29 03:13:34;;;;;;;0.73;0.70;;;17.50;77.80;;;;;;5047390;28;47069;-77
2021/12/29 03:16:01;;;;;;;0.77;0.77;;;17.50;79.00;;;;;;5045411;28;45499;-77
2021/12/29 03:18:29;;;;;;;0.95;0.90;;;17.50;79.20;;;;;;5046469;28;45528;-77
2021/12/29 03:20:56;;;;;;;2.30;0.77;;;17.50;78.00;;;;;;5047762;28;45391;-77
2021/12/29 03:23:23;;;;;;;0.95;0.80;;;17.50;78.20;;;;;;5036074;28;47499;-77
2021/12/29 03:25:52;;;;;;;1.13;0.90;;;17.50;78.70;;;;;;5044437;28;45245;-77
2021/12/29 03:28:22;;;;;;;1.20;0.70;;;17.50;79.80;;;;;;5042167;28;45307;-77
2021/12/29 03:30:52;;;;;;;0.82;0.82;;;17.60;77.90;;;;;;5046852;28;45157;-77
2021/12/29 03:33:20;;;;;;;1.38;0.95;;;17.50;78.50;;;;;;5046230;28;47408;-76
2021/12/29 03:35:51;;;;;;;0.60;0.60;;;17.50;78.90;;;;;;5047381;28;45300;-77
2021/12/29 03:38:20;;;;;;;0.98;0.77;;;17.50;78.40;;;;;;5048033;28;45184;-76
2021/12/29 03:40:48;;;;;;;0.88;0.88;;;17.50;77.90;;;;;;5046152;28;45800;-76
2021/12/29 03:43:20;;;;;;;1.00;0.90;;;17.50;78.50;;;;;;5048054;28;45626;-77
2021/12/29 03:45:51;;;;;;;0.70;0.60;;;17.50;78.20;;;;;;5050264;28;45984;-77
2021/12/29 03:48:19;;;;;;;1.50;0.90;;;17.50;77.80;;;;;;5047664;28;45721;-77
2021/12/29 03:50:46;;;;;;;1.17;0.80;;;17.50;78.20;;;;;;5050729;28;45579;-77
2021/12/29 03:53:15;;;;;;;1.33;0.90;;;17.50;78.60;;;;;;5050737;28;47190;-77
2021/12/29 03:55:44;;;;;;;1.40;1.08;;;17.50;77.70;;;;;;5050023;28;45146;-77
2021/12/29 03:58:11;;;;;;;1.35;0.90;;;17.50;77.30;;;;;;5048687;28;45258;-77
2021/12/29 04:00:43;;;;;;;0.70;0.70;;;17.50;77.00;;;;;;5032821;28;45549;-77
2021/12/29 04:03:11;;;;;;;0.75;0.70;;;17.50;77.80;;;;;;5048441;28;47596;-77
2021/12/29 04:05:39;;;;;;;1.38;0.90;;;17.50;78.70;;;;;;5049227;28;45606;-76
2021/12/29 04:08:06;;;;;;;1.25;0.80;;;17.50;77.60;;;;;;5050651;28;45205;-76
2021/12/29 04:10:34;;;;;;;1.40;1.00;;;17.50;77.60;;;;;;5050600;28;45449;-76
2021/12/29 04:13:01;;;;;;;0.90;0.80;;;17.50;77.20;;;;;;5050439;28;47947;-77
2021/12/29 04:15:29;;;;;;;1.27;0.80;;;17.50;77.00;;;;;;5048032;28;45303;-76
2021/12/29 04:17:59;;;;;;;0.90;0.80;;;17.50;77.10;;;;;;5049394;28;45270;-77
2021/12/29 04:23:24;;;;;;;2.25;1.10;;;17.60;77.30;;;;;;5026660;28;46708;-77
2021/12/29 04:25:54;;;;;;;1.95;0.90;;;17.50;76.50;;;;;;5047711;28;45281;-76
2021/12/29 04:28:23;;;;;;;0.93;0.75;;;17.50;77.00;;;;;;5048365;28;45272;-76
2021/12/29 04:30:52;;;;;;;2.28;0.85;;;17.60;78.40;;;;;;5048722;28;45903;-76
2021/12/29 04:33:21;;;;;;;1.23;0.80;;;17.50;76.30;;;;;;5046664;28;45709;-76
2021/12/29 04:35:49;;;;;;;1.25;0.88;;;17.50;77.10;;;;;;5048660;28;45358;-76
2021/12/29 04:38:16;;;;;;;1.63;0.95;;;17.50;76.80;;;;;;5048802;28;45349;-77
2021/12/29 04:40:43;;;;;;;1.45;0.93;;;17.50;76.70;;;;;;5049308;28;45543;-77
2021/12/29 04:43:11;;;;;;;1.17;0.90;;;17.50;76.90;;;;;;5047592;28;47991;-76
2021/12/29 04:45:38;;;;;;;3.00;1.02;;;17.50;77.00;;;;;;5048596;28;46002;-77
2021/12/29 04:48:13;;;;;;;1.30;0.90;;;17.50;76.40;;;;;;5048118;28;45367;-77
2021/12/29 04:50:49;;;;;;;2.70;1.13;;;17.50;76.40;;;;;;5049574;28;45431;-77
2021/12/29 04:53:18;;;;;;;1.83;1.08;;;17.50;77.20;;;;;;5048552;28;47382;-77
2021/12/29 04:55:45;;;;;;;2.33;1.00;;;17.50;77.30;;;;;;5048453;28;45413;-75
2021/12/29 04:58:13;;;;;;;1.35;0.93;;;17.50;77.70;;;;;;5048359;28;45271;-77
2021/12/29 05:00:40;;;;;;;0.80;0.80;;;17.50;77.40;;;;;;5050300;28;45240;-77
2021/12/29 05:03:07;;;;;;;1.65;0.90;;;17.50;77.10;;;;;;5047409;28;48079;-76
2021/12/29 05:05:52;;;;;;;1.20;1.00;;;17.50;77.60;;;;;;5048653;28;45284;-76
2021/12/29 05:08:26;;;;;;;0.95;0.80;;;17.50;77.10;;;;;;5049370;28;45446;-76
2021/12/29 05:10:58;;;;;;;1.00;0.70;;;17.50;77.50;;;;;;5047961;28;45109;-77
2021/12/29 05:13:26;;;;;;;2.03;1.10;;;17.50;78.10;;;;;;5048624;28;47382;-77
2021/12/29 05:15:55;;;;;;;1.20;1.00;;;17.50;76.60;;;;;;5228798;22;45260;-76
2021/12/29 05:18:22;;;;;;;1.58;1.00;;;17.40;77.00;;;;;;5020197;28;45329;-76
2021/12/29 05:20:49;;;;;;;1.67;1.00;;;17.40;77.90;;;;;;5025417;28;45411;-77
2021/12/29 05:23:17;;;;;;;1.02;0.85;;;17.40;78.60;;;;;;5032629;28;47228;-77
2021/12/29 05:25:46;;;;;;;1.50;1.00;;;17.40;78.70;;;;;;5028468;28;45305;-77
2021/12/29 05:28:12;;;;;;;0.85;0.70;;;17.40;77.40;;;;;;5029366;28;45333;-77
2021/12/29 05:30:40;;;;;;;2.60;0.80;;;17.30;78.20;;;;;;5028292;28;45611;-76
2021/12/29 05:33:07;;;;;;;1.38;1.00;;;17.30;77.80;;;;;;5025314;28;45382;-76
2021/12/29 05:35:34;;;;;;;1.73;1.05;;;17.30;77.10;;;;;;5028400;28;45280;-76
2021/12/29 05:38:01;;;;;;;1.50;1.00;;;17.30;77.30;;;;;;5028859;28;45327;-76
2021/12/29 05:40:29;;;;;;;1.75;1.20;;;17.30;78.30;;;;;;5026966;28;45329;-75
2021/12/29 05:42:59;;;;;;;1.30;0.93;;;17.40;77.90;;;;;;5029008;28;47862;-77
2021/12/29 05:45:27;;;;;;;1.50;1.02;;;17.40;77.50;;;;;;5024263;28;45225;-76
2021/12/29 05:47:56;;;;;;;1.95;1.00;;;17.50;77.90;;;;;;5024369;28;45403;-76
2021/12/29 05:50:25;;;;;;;1.60;1.10;;;17.50;77.10;;;;;;5025200;28;45308;-76
2021/12/29 05:52:52;;;;;;;2.05;1.00;;;17.50;76.10;;;;;;5027618;28;46590;-76
2021/12/29 05:55:19;;;;;;;1.20;1.00;;;17.50;76.60;;;;;;5028391;28;45230;-77
2021/12/29 05:57:46;;;;;;;2.88;0.88;;;17.60;76.60;;;;;;5029195;28;45351;-76
2021/12/29 06:00:17;;;;;;;1.98;0.98;;;17.60;77.20;;;;;;5022071;28;45360;-76
2021/12/29 06:02:44;;;;;;;1.58;1.02;;;17.50;77.40;;;;;;5024888;28;47927;-76
2021/12/29 06:05:11;;;;;;;1.42;0.90;;;17.60;78.20;;;;;;5024236;28;45341;-77
2021/12/29 06:07:39;;;;;;;1.63;0.82;;;17.60;77.90;;;;;;5023471;28;45372;-76
2021/12/29 06:10:08;;;;;;;1.35;1.00;;;17.60;78.70;;;;;;5026022;28;45179;-76
2021/12/29 06:12:35;;;;;;;1.58;0.90;;;17.60;78.80;;;;;;5024323;28;45251;-76
2021/12/29 06:15:02;;;;;;;1.92;0.82;;;17.60;78.30;;;;;;5026736;28;45177;-76
2021/12/29 06:17:30;;;;;;;1.83;0.98;;;17.60;78.50;;;;;;5015860;28;45167;-76
2021/12/29 06:19:57;;;;;;;1.73;0.90;;;17.50;78.70;;;;;;5025448;28;45155;-76
2021/12/29 06:22:24;;;;;;;1.08;0.80;;;17.60;78.70;;;;;;5028667;28;47676;-76
2021/12/29 06:24:52;;;;;;;3.17;1.10;;;17.60;78.50;;;;;;5031137;28;45900;-76
2021/12/29 06:27:20;;;;;;;1.27;1.00;;;17.60;78.40;;;;;;5024177;28;45285;-76
2021/12/29 06:29:47;;;;;;;2.45;1.00;;;17.50;78.40;;;;;;5018499;28;45281;-76
2021/12/29 06:32:14;;;;;;;1.92;1.27;;;17.50;78.70;;;;;;5015352;28;45375;-76
2021/12/29 06:34:43;;;;;;;1.58;1.00;;;17.60;78.40;;;;;;5042742;28;45229;-76
2021/12/29 06:37:12;;;;;;;2.35;0.80;;;17.50;78.20;;;;;;5032454;28;45170;-76
2021/12/29 06:39:39;;;;;;;0.85;0.80;;;17.50;78.30;;;;;;5027958;28;45305;-76
2021/12/29 06:42:07;;;;;;;2.03;1.00;;;17.60;78.80;;;;;;5027195;28;45209;-76
2021/12/29 06:44:34;;;;;;;1.73;1.00;;;17.60;78.40;;;;;;5027957;28;45358;-76
2021/12/29 06:47:01;;;;;;;0.82;0.80;;;17.60;78.50;;;;;;5026155;28;45243;-76
2021/12/29 06:49:28;;;;;;;2.15;1.02;;;17.50;78.50;;;;;;5026541;28;45166;-76
2021/12/29 06:51:56;;;;;;;2.15;1.00;;;17.60;78.50;;;;;;5027220;28;47578;-76
2021/12/29 06:54:23;;;;;;;0.93;0.82;;;17.70;78.40;;;;;;5026569;28;45221;-76
2021/12/29 06:56:50;;;;;;;1.48;0.90;;;17.60;78.40;;;;;;5026641;28;45314;-76
2021/12/29 06:59:16;;;;;;;1.00;0.73;;;17.60;78.20;;;;;;5027370;28;45220;-76
2021/12/29 07:01:43;;;;;;;1.10;1.00;;;17.60;78.20;;;;;;5026346;28;47462;-76
2021/12/29 07:04:10;;;;;;;1.45;1.15;;;17.60;78.20;;;;;;5027172;28;45230;-76
2021/12/29 07:06:37;;;;;;;1.10;0.90;;;17.60;78.50;;;;;;5027650;28;45157;-76
2021/12/29 07:09:05;;;;;;;1.27;0.80;;;17.60;78.40;;;;;;5026387;28;45241;-76
2021/12/29 07:11:33;;;;;;;1.02;0.73;;;17.60;79.60;;;;;;5026981;28;46321;-76
2021/12/29 07:14:03;;;;;;;1.23;0.90;;;17.50;79.40;;;;;;5024153;28;45316;-75
2021/12/29 07:16:30;;;;;;;1.02;0.90;;;17.50;80.70;;;;;;5026517;28;45203;-76
2021/12/29 07:18:57;;;;;;;1.15;1.05;;;17.50;79.20;;;;;;5029143;28;45156;-75
2021/12/29 07:21:24;;;;;;;2.17;0.93;;;17.50;79.40;;;;;;5029208;28;45999;-75
2021/12/29 07:23:53;;;;;;;1.27;0.80;;;17.50;78.80;;;;;;5040820;28;45293;-75
2021/12/29 07:26:22;;;;;;;2.13;1.10;;;17.50;79.00;;;;;;5029733;28;45146;-76
2021/12/29 07:28:49;;;;;;;1.05;0.90;;;17.50;79.00;;;;;;5029290;28;45568;-76
2021/12/29 07:31:16;;;;;;;1.95;0.90;;;17.50;78.70;;;;;;5028084;28;47042;-76
2021/12/29 07:33:43;;;;;;;1.20;0.80;;;17.50;78.70;;;;;;5038130;28;45254;-75
2021/12/29 07:36:11;;;;;;;1.13;0.90;;;17.50;79.10;;;;;;5029412;28;45210;-75
2021/12/29 07:38:38;;;;;;;0.70;0.70;;;17.50;78.90;;;;;;5028791;28;45351;-75
2021/12/29 07:41:05;;;;;;;1.80;0.88;;;17.50;79.00;;;;;;5032109;28;46298;-75
2021/12/29 07:43:34;;;;;;;1.20;0.70;;;17.60;78.80;;;;;;5029743;28;45253;-75
2021/12/29 07:46:01;;;;;;;0.80;0.80;;;17.50;78.40;;;;;;5029168;28;45173;-75
2021/12/29 07:48:30;;;;;;;0.60;0.60;;;17.60;78.50;;;;;;5028920;28;45792;-75
2021/12/29 07:50:57;;;;;;;1.42;0.90;;;17.60;79.10;;;;;;5031656;28;46617;-75
2021/12/29 07:53:24;;;;;;;1.63;0.90;;;17.60;78.70;;;;;;5025561;28;45360;-75
2021/12/29 07:55:51;;;;;;;0.95;0.80;;;17.50;78.30;;;;;;5027017;28;45803;-75
2021/12/29 07:58:19;;;;;;;1.52;0.80;;;17.60;78.00;;;;;;5029349;28;45428;-75
2021/12/29 08:00:47;;;;;;;1.42;0.70;;;17.60;78.20;;;;;;5028738;28;46631;-75
2021/12/29 08:03:16;;;;;;;0.80;0.70;;;17.50;77.90;;;;;;5027778;28;46269;-75
2021/12/29 08:05:46;;;;;;;0.85;0.70;;;17.50;78.20;;;;;;5027917;28;45722;-75
2021/12/29 08:08:13;;;;;;;1.08;0.77;;;17.50;78.00;;;;;;5027788;28;45325;-75
2021/12/29 08:10:41;;;;;;;2.05;0.80;;;17.50;78.70;;;;;;5027500;28;47221;-75
2021/12/29 08:13:09;;;;;;;0.73;0.60;;;17.50;79.30;;;;;;5030125;28;45254;-76
2021/12/29 08:15:36;;;;;;;1.58;0.60;;;17.40;78.70;;;;;;5029702;28;45327;-76
2021/12/29 08:18:08;;;;;;;0.80;0.75;;;17.50;78.70;;;;;;5028780;28;45537;-76
2021/12/29 08:20:36;;;;;;;1.40;0.60;;;17.40;78.20;;;;;;5028299;28;48321;-76
2021/12/29 08:23:04;;;;;;;1.33;0.80;;;17.40;77.80;;;;;;5029290;28;45375;-76
2021/12/29 08:25:31;;;;;;;0.98;0.82;;;17.40;77.80;;;;;;5029507;28;45158;-75
2021/12/29 08:27:58;;;;;;;1.02;0.60;;;17.40;78.00;;;;;;5024943;28;45316;-75
2021/12/29 08:30:26;;;;;;;1.15;0.70;;;17.40;78.80;;;;;;5020386;28;47882;-76
2021/12/29 08:32:53;;;;;;;1.50;0.75;;;17.50;79.00;;;;;;5025163;28;45189;-75
2021/12/29 08:35:21;;;;;;;0.98;0.45;;;17.50;78.50;;;;;;5028494;28;45214;-75
2021/12/29 08:37:48;;;;;;;1.00;0.90;;;17.50;78.80;;;;;;5028327;28;45190;-75
2021/12/29 08:40:16;;;;;;;1.63;0.70;;;17.50;79.20;;;;;;5028834;28;45786;-76
2021/12/29 08:42:43;;;;;;;1.30;0.80;;;17.50;78.20;;;;;;5028127;28;45226;-75
2021/12/29 08:45:12;;;;;;;1.90;0.80;;;17.50;77.50;;;;;;5027608;28;45250;-75
2021/12/29 08:47:39;;;;;;;1.63;0.93;;;17.50;78.00;;;;;;5027701;28;45157;-75
2021/12/29 08:50:10;;;;;;;1.08;0.73;;;17.50;78.10;;;;;;5027810;28;45318;-75
2021/12/29 08:52:39;;;;;;;1.10;0.60;;;17.50;77.90;;;;;;5028073;28;45172;-76
2021/12/29 08:55:08;;;;;;;1.23;0.63;;;17.50;78.40;;;;;;5027726;28;45263;-76
2021/12/29 08:57:35;;;;;;;1.00;0.52;;;17.50;78.30;;;;;;5028627;28;45360;-75
2021/12/29 09:00:04;;;;;;;1.33;0.80;;;17.50;77.90;;;;;;5026125;28;47409;-75
2021/12/29 09:02:31;;;;;;;1.25;0.80;;;17.50;78.10;;;;;;5024195;28;45697;-75
2021/12/29 09:04:58;;;;;;;1.05;0.63;;;17.50;77.30;;;;;;5028211;28;45738;-75
2021/12/29 09:07:24;;;;;;;1.80;0.75;;;17.50;77.30;;;;;;5028044;28;45376;-75
2021/12/29 09:09:52;;;;;;;1.45;0.70;;;17.50;77.70;;;;;;5026770;28;46188;-75
2021/12/29 09:12:19;;;;;;;1.35;0.70;;;17.50;77.20;;;;;;5028557;28;45224;-75
2021/12/29 09:14:46;;;;;;;1.05;0.65;;;17.50;77.70;;;;;;5028140;28;45304;-75
2021/12/29 09:17:13;;;;;;;1.52;0.73;;;17.50;77.60;;;;;;5027726;28;45495;-75
2021/12/29 09:19:41;;;;;;;1.58;0.52;;;17.50;77.50;;;;;;5027480;28;47871;-75
2021/12/29 09:22:09;;;;;;;1.52;0.70;;;17.50;78.20;;;;;;5026222;28;45420;-75
2021/12/29 09:24:36;;;;;;;1.30;0.70;;;17.50;78.10;;;;;;5022896;28;45669;-75
2021/12/29 09:27:04;;;;;;;0.80;0.60;;;17.50;78.10;;;;;;5016788;28;45245;-75
2021/12/29 09:29:33;;;;;;;1.13;0.57;;;17.50;78.40;;;;;;5021791;28;46432;-75
2021/12/29 09:32:00;;;;;;;0.95;0.50;;;17.60;78.60;;;;;;5027601;28;45172;-75
2021/12/29 09:34:27;;;;;;;1.30;0.60;;;17.50;78.70;;;;;;5028283;28;45333;-75
2021/12/29 09:36:55;;;;;;;0.77;0.60;;;17.60;78.70;;;;;;5027134;28;45336;-75
2021/12/29 09:39:24;;;;;;;1.70;0.50;;;17.50;78.40;;;;;;5027335;28;47692;-75
2021/12/29 09:41:51;;;;;;;0.73;0.50;;;17.60;78.50;;;;;;5026267;28;45381;-75
2021/12/29 09:44:20;;;;;;;1.42;0.70;;;17.60;78.40;;;;;;5026532;28;45277;-75
2021/12/29 09:46:48;;;;;;;0.95;0.55;;;17.50;78.90;;;;;;5026648;28;45360;-75
2021/12/29 09:49:15;;;;;;;0.60;0.50;;;17.50;78.10;;;;;;5027178;28;46192;-75
2021/12/29 09:51:42;;;;;;;1.95;0.77;;;17.50;78.20;;;;;;5026583;28;45388;-75
2021/12/29 09:54:09;;;;;;;1.23;0.60;;;17.50;78.50;;;;;;5027691;28;45431;-75
2021/12/29 09:56:36;;;;;;;0.70;0.60;;;17.50;78.30;;;;;;5027814;28;45673;-75
2021/12/29 09:59:04;;;;;;;0.85;0.68;;;17.50;78.30;;;;;;5026870;28;46280;-75
2021/12/29 10:01:33;;;;;;;0.88;0.60;;;17.50;78.20;;;;;;5026872;28;45921;-75
2021/12/29 10:04:00;;;;;;;1.08;0.68;;;17.50;78.40;;;;;;5021608;28;45486;-75
2021/12/29 10:06:26;;;;;;;1.13;0.50;;;17.50;78.20;;;;;;5027910;28;45392;-75
2021/12/29 10:08:53;;;;;;;0.40;0.40;;;17.50;78.10;;;;;;5026759;28;47433;-75
2021/12/29 10:11:28;;;;;;;1.15;0.50;;;17.50;78.60;;;;;;5027069;28;45150;-75
2021/12/29 10:13:56;;;;;;;1.23;0.60;;;17.50;78.20;;;;;;5027376;28;45372;-75
2021/12/29 10:16:25;;;;;;;1.42;0.68;;;17.60;78.30;;;;;;5026836;28;45353;-75
2021/12/29 10:19:00;;;;;;;1.95;0.90;;;17.60;78.40;;;;;;5027751;28;45396;-75
2021/12/29 10:21:26;;;;;;;1.17;0.60;;;17.60;78.50;;;;;;5027380;28;45192;-75
2021/12/29 10:23:55;;;;;;;1.50;0.57;;;17.60;78.30;;;;;;5032214;28;45276;-75
2021/12/29 10:26:24;;;;;;;0.98;0.68;;;17.60;78.30;;;;;;5025399;28;45202;-75
2021/12/29 10:28:53;;;;;;;0.75;0.60;;;17.60;78.40;;;;;;5025614;28;45352;-75
2021/12/29 10:31:22;;;;;;;1.95;0.70;;;17.60;78.30;;;;;;5025642;28;45553;-75
2021/12/29 10:33:51;;;;;;;1.02;0.60;;;17.60;78.30;;;;;;5025770;28;45321;-75
2021/12/29 10:36:25;;;;;;;0.40;0.40;;;17.60;78.40;;;;;;5027074;28;45401;-75
2021/12/29 10:38:58;;;;;;;1.88;0.70;;;17.60;78.30;;;;;;5026488;28;47019;-75
2021/12/29 10:41:25;;;;;;;1.00;0.70;;;17.60;78.40;;;;;;5026699;28;45316;-75
2021/12/29 10:43:58;;;;;;;2.15;0.73;;;17.60;78.20;;;;;;5033933;28;45266;-75
2021/12/29 10:46:26;;;;;;;1.30;0.77;;;17.60;78.10;;;;;;5026742;28;45317;-75
2021/12/29 10:48:55;;;;;;;1.58;0.73;;;17.50;78.00;;;;;;5027449;28;45395;-75
2021/12/29 10:51:29;;;;;;;1.83;0.60;;;17.60;78.00;;;;;;5027625;28;45536;-75
2021/12/29 10:54:08;;;;;;;1.08;0.80;;;17.60;77.70;;;;;;5020933;28;45344;-75
2021/12/29 10:56:37;;;;;;;1.08;0.70;;;17.50;77.80;;;;;;5011429;28;45265;-76
2021/12/29 10:59:25;;;;;;;1.10;0.60;;;17.50;78.00;;;;;;5018484;28;47610;-75
2021/12/29 11:01:53;;;;;;;1.33;0.68;;;17.60;78.00;;;;;;5026646;28;45280;-75
2021/12/29 11:04:21;;;;;;;1.58;0.75;;;17.60;78.00;;;;;;5026068;28;45339;-75
2021/12/29 11:06:50;;;;;;;0.80;0.50;;;17.60;77.80;;;;;;5022754;28;45201;-75
2021/12/29 11:09:25;;;;;;;0.65;0.40;;;17.60;77.80;;;;;;5027408;28;47028;-75
2021/12/29 11:11:52;;;;;;;1.13;0.57;;;17.60;78.10;;;;;;5026238;28;45134;-75
2021/12/29 11:14:23;;;;;;;1.83;0.45;;;17.60;78.00;;;;;;5027117;28;45237;-75
2021/12/29 11:17:03;;;;;;;1.38;0.68;;;17.60;78.00;;;;;;5026127;28;45242;-75
2021/12/29 11:19:30;;;;;;;1.50;0.75;;;17.60;78.00;;;;;;5026961;28;45285;-75
2021/12/29 11:22:11;;;;;;;1.30;0.63;;;17.60;77.80;;;;;;5020015;28;45336;-75
2021/12/29 11:24:38;;;;;;;1.40;0.70;;;17.60;77.70;;;;;;5027580;28;45242;-75
2021/12/29 11:27:11;;;;;;;1.88;0.77;;;17.60;77.90;;;;;;5027065;28;45411;-75
2021/12/29 11:29:49;;;;;;;1.35;0.70;;;17.60;77.70;;;;;;5024448;28;46503;-75
2021/12/29 11:32:21;;;;;;;1.42;0.57;;;17.60;77.70;;;;;;5026453;28;45245;-75
2021/12/29 11:34:58;;;;;;;0.93;0.50;;;17.60;77.80;;;;;;5026931;28;45411;-75
2021/12/29 11:37:27;;;;;;;1.38;0.73;;;17.60;77.90;;;;;;5025999;28;45358;-75
2021/12/29 11:39:54;;;;;;;2.42;0.70;;;17.60;77.80;;;;;;5026420;28;45121;-75
2021/12/29 11:42:21;;;;;;;1.08;0.68;;;17.60;77.60;;;;;;5026586;28;45244;-75
2021/12/29 11:44:48;;;;;;;0.73;0.50;;;17.60;77.70;;;;;;5024785;28;46978;-75
2021/12/29 11:47:15;;;;;;;1.85;0.60;;;17.60;77.70;;;;;;5026277;28;45130;-75
2021/12/29 11:49:42;;;;;;;0.93;0.60;;;17.60;77.80;;;;;;5026664;28;45448;-75
2021/12/29 11:52:26;;;;;;;1.23;0.60;;;17.60;77.70;;;;;;5024879;28;45329;-75
2021/12/29 11:55:03;;;;;;;0.88;0.75;;;17.60;77.70;;;;;;5026879;28;45456;-76
2021/12/29 11:57:32;;;;;;;0.80;0.60;;;17.60;77.60;;;;;;5019060;28;45320;-75
2021/12/29 12:00:08;;;;;;;0.73;0.43;;;17.60;77.80;;;;;;5019351;28;47092;-75
2021/12/29 12:02:35;;;;;;;2.53;0.70;;;17.60;77.60;;;;;;5018544;28;45760;-76
2021/12/29 12:05:04;;;;;;;1.35;0.55;;;17.60;77.60;;;;;;5023954;28;45324;-75
2021/12/29 12:07:31;;;;;;;1.50;0.60;;;17.60;77.60;;;;;;5026249;28;45277;-75
2021/12/29 12:10:06;;;;;;;1.65;0.50;;;17.60;77.30;;;;;;5030080;28;45314;-75
2021/12/29 12:12:35;;;;;;;1.40;0.70;;;17.60;77.10;;;;;;5029226;28;45177;-76
2021/12/29 12:15:06;;;;;;;2.15;0.60;;;17.60;77.10;;;;;;5029498;28;45227;-76
2021/12/29 12:17:33;;;;;;;2.20;0.68;;;17.60;77.20;;;;;;5028962;28;45267;-76
2021/12/29 12:20:03;;;;;;;0.63;0.50;;;17.60;76.90;;;;;;5028069;28;46617;-75
2021/12/29 12:22:30;;;;;;;1.52;0.75;;;17.70;77.10;;;;;;5031666;28;45115;-75
2021/12/29 12:25:00;;;;;;;2.35;0.70;;;17.60;77.30;;;;;;5029222;28;45157;-75
2021/12/29 12:27:30;;;;;;;1.05;0.60;;;17.60;76.80;;;;;;5029997;28;45245;-75
2021/12/29 12:30:05;;;;;;;1.48;0.70;;;17.60;76.80;;;;;;5029493;28;45480;-75
2021/12/29 12:32:42;;;;;;;0.82;0.65;;;17.60;76.60;;;;;;5021821;28;45547;-75
2021/12/29 12:35:09;;;;;;;1.70;0.82;;;17.60;76.50;;;;;;5019641;28;45255;-76
2021/12/29 12:37:39;;;;;;;1.33;0.50;;;17.60;76.60;;;;;;5029461;28;45218;-75
2021/12/29 12:40:10;;;;;;;2.05;0.80;;;17.60;76.10;;;;;;5028560;28;46206;-75
2021/12/29 12:42:38;;;;;;;1.67;0.80;;;17.60;76.10;;;;;;5019881;28;45499;-76
2021/12/29 12:45:17;;;;;;;1.17;0.70;;;17.60;76.20;;;;;;5027892;28;46332;-75
2021/12/29 12:47:44;;;;;;;1.10;0.68;;;17.60;76.20;;;;;;5018099;28;45537;-75
2021/12/29 12:50:11;;;;;;;1.50;0.60;;;17.60;77.10;;;;;;5028885;28;46190;-76
2021/12/29 12:52:43;;;;;;;1.67;0.68;;;17.60;76.30;;;;;;5028603;28;45345;-75
2021/12/29 12:55:13;;;;;;;1.48;0.73;;;17.60;76.50;;;;;;5029085;28;45437;-75
2021/12/29 12:57:44;;;;;;;3.22;0.60;;;17.60;76.60;;;;;;5024931;28;45430;-75
2021/12/29 13:00:19;;;;;;;0.60;0.45;;;17.60;76.50;;;;;;5027100;28;45560;-75
2021/12/29 13:02:50;;;;;;;0.85;0.60;;;17.70;76.20;;;;;;5026727;28;45384;-75